sensor_id;sensor_type;location;lat;lon;timestamp;pressure;altitude;pressure_sealevel;temperature;humidity
17615;BME280;8926;49.720;6.576;2023-04-20T00:01:22;99904.63;;;8.53;51.41
17615;BME280;8926;49.720;6.576;2023-04-20T00:03:48;99905.03;;;8.44;52.27
17615;BME280;8926;49.720;6.576;2023-04-20T00:06:13;99899.81;;;8.44;51.34
17615;BME280;8926;49.720;6.576;2023-04-20T00:08:39;99896.16;;;8.48;51.27
17615;BME280;8926;49.720;6.576;2023-04-20T00:11:05;99896.16;;;8.48;50.63
17615;BME280;8926;49.720;6.576;2023-04-20T00:13:30;99889.91;;;8.52;50.18
17615;BME280;8926;49.720;6.576;2023-04-20T00:15:55;99886.47;;;8.52;50.31
17615;BME280;8926;49.720;6.576;2023-04-20T00:18:21;99877.44;;;8.40;50.63
17615;BME280;8926;49.720;6.576;2023-04-20T00:20:46;99881.22;;;8.33;50.48
17615;BME280;8926;49.720;6.576;2023-04-20T00:23:11;99869.53;;;8.23;50.73
17615;BME280;8926;49.720;6.576;2023-04-20T00:25:36;99866.56;;;8.11;50.94
17615;BME280;8926;49.720;6.576;2023-04-20T00:28:02;99864.44;;;8.01;51.53
17615;BME280;8926;49.720;6.576;2023-04-20T00:30:27;99857.75;;;7.95;51.38
17615;BME280;8926;49.720;6.576;2023-04-20T00:32:52;99858.94;;;7.88;51.65
17615;BME280;8926;49.720;6.576;2023-04-20T00:35:18;99857.31;;;7.86;51.51
17615;BME280;8926;49.720;6.576;2023-04-20T00:37:43;99856.41;;;7.87;51.78
17615;BME280;8926;49.720;6.576;2023-04-20T00:40:08;99848.66;;;7.85;51.23
17615;BME280;8926;49.720;6.576;2023-04-20T00:42:34;99855.28;;;7.92;51.25
17615;BME280;8926;49.720;6.576;2023-04-20T00:45:00;99843.78;;;7.98;50.64
17615;BME280;8926;49.720;6.576;2023-04-20T00:47:25;99848.00;;;8.00;50.24
17615;BME280;8926;49.720;6.576;2023-04-20T00:49:51;99846.31;;;7.99;50.87
17615;BME280;8926;49.720;6.576;2023-04-20T00:52:16;99841.31;;;7.95;51.15
17615;BME280;8926;49.720;6.576;2023-04-20T00:54:42;99836.94;;;7.95;51.06
17615;BME280;8926;49.720;6.576;2023-04-20T00:57:10;99835.91;;;7.99;50.43
17615;BME280;8926;49.720;6.576;2023-04-20T00:59:37;99824.84;;;7.94;51.39
17615;BME280;8926;49.720;6.576;2023-04-20T01:02:02;99835.31;;;7.93;50.53
17615;BME280;8926;49.720;6.576;2023-04-20T01:04:27;99832.78;;;7.91;50.89
17615;BME280;8926;49.720;6.576;2023-04-20T01:06:53;99826.47;;;7.78;51.81
17615;BME280;8926;49.720;6.576;2023-04-20T01:09:19;99825.03;;;7.71;52.54
17615;BME280;8926;49.720;6.576;2023-04-20T01:11:44;99821.91;;;7.63;52.54
17615;BME280;8926;49.720;6.576;2023-04-20T01:14:10;99827.09;;;7.63;51.86
17615;BME280;8926;49.720;6.576;2023-04-20T01:16:35;99811.63;;;7.60;51.62
17615;BME280;8926;49.720;6.576;2023-04-20T01:19:00;99816.72;;;7.63;51.45
17615;BME280;8926;49.720;6.576;2023-04-20T01:21:26;99805.19;;;7.68;51.14
17615;BME280;8926;49.720;6.576;2023-04-20T01:23:51;99804.34;;;7.68;51.24
17615;BME280;8926;49.720;6.576;2023-04-20T01:26:18;99804.63;;;7.62;51.60
17615;BME280;8926;49.720;6.576;2023-04-20T01:28:44;99805.94;;;7.52;52.03
17615;BME280;8926;49.720;6.576;2023-04-20T01:31:10;99801.78;;;7.47;52.18
17615;BME280;8926;49.720;6.576;2023-04-20T01:33:36;99802.69;;;7.46;53.14
17615;BME280;8926;49.720;6.576;2023-04-20T01:36:03;99792.94;;;7.52;53.04
17615;BME280;8926;49.720;6.576;2023-04-20T01:38:29;99797.06;;;7.56;53.14
17615;BME280;8926;49.720;6.576;2023-04-20T01:40:59;99791.75;;;7.59;53.26
17615;BME280;8926;49.720;6.576;2023-04-20T01:43:25;99784.78;;;7.59;52.72
17615;BME280;8926;49.720;6.576;2023-04-20T01:45:51;99777.06;;;7.58;52.85
17615;BME280;8926;49.720;6.576;2023-04-20T01:48:16;99780.44;;;7.60;52.71
17615;BME280;8926;49.720;6.576;2023-04-20T01:50:41;99780.88;;;7.51;52.93
17615;BME280;8926;49.720;6.576;2023-04-20T01:53:07;99774.88;;;7.48;52.87
17615;BME280;8926;49.720;6.576;2023-04-20T01:55:33;99773.47;;;7.41;52.57
17615;BME280;8926;49.720;6.576;2023-04-20T01:57:58;99777.34;;;7.31;53.54
17615;BME280;8926;49.720;6.576;2023-04-20T02:00:24;99778.53;;;7.24;53.25
17615;BME280;8926;49.720;6.576;2023-04-20T02:02:49;99768.41;;;7.18;53.44
17615;BME280;8926;49.720;6.576;2023-04-20T02:05:14;99767.69;;;7.14;54.17
17615;BME280;8926;49.720;6.576;2023-04-20T02:07:40;99768.66;;;7.12;54.16
17615;BME280;8926;49.720;6.576;2023-04-20T02:10:06;99772.28;;;7.08;53.59
17615;BME280;8926;49.720;6.576;2023-04-20T02:12:31;99768.91;;;7.06;53.80
17615;BME280;8926;49.720;6.576;2023-04-20T02:14:56;99770.47;;;7.10;53.36
17615;BME280;8926;49.720;6.576;2023-04-20T02:17:21;99768.66;;;7.12;53.47
17615;BME280;8926;49.720;6.576;2023-04-20T02:19:47;99761.72;;;7.12;53.29
17615;BME280;8926;49.720;6.576;2023-04-20T02:22:12;99754.63;;;7.16;53.78
17615;BME280;8926;49.720;6.576;2023-04-20T02:24:38;99761.25;;;7.23;53.66
17615;BME280;8926;49.720;6.576;2023-04-20T02:27:03;99754.25;;;7.25;53.80
17615;BME280;8926;49.720;6.576;2023-04-20T02:29:29;99750.88;;;7.23;53.85
17615;BME280;8926;49.720;6.576;2023-04-20T02:31:55;99747.63;;;7.18;54.67
17615;BME280;8926;49.720;6.576;2023-04-20T02:34:20;99750.59;;;7.09;54.37
17615;BME280;8926;49.720;6.576;2023-04-20T02:36:45;99739.72;;;7.01;54.94
17615;BME280;8926;49.720;6.576;2023-04-20T02:39:11;99738.16;;;6.97;54.43
17615;BME280;8926;49.720;6.576;2023-04-20T02:41:36;99736.84;;;6.87;54.71
17615;BME280;8926;49.720;6.576;2023-04-20T02:44:01;99730.19;;;6.79;54.75
17615;BME280;8926;49.720;6.576;2023-04-20T02:46:27;99727.59;;;6.79;55.32
17615;BME280;8926;49.720;6.576;2023-04-20T02:48:52;99729.94;;;6.86;53.91
17615;BME280;8926;49.720;6.576;2023-04-20T02:51:19;99716.59;;;6.74;54.76
17615;BME280;8926;49.720;6.576;2023-04-20T02:53:44;99716.72;;;6.71;54.32
17615;BME280;8926;49.720;6.576;2023-04-20T02:56:10;99722.63;;;6.75;53.93
17615;BME280;8926;49.720;6.576;2023-04-20T02:58:35;99731.78;;;6.84;53.92
17615;BME280;8926;49.720;6.576;2023-04-20T03:01:01;99725.00;;;6.79;54.34
17615;BME280;8926;49.720;6.576;2023-04-20T03:03:28;99731.16;;;6.77;54.25
17615;BME280;8926;49.720;6.576;2023-04-20T03:05:54;99732.22;;;6.73;54.57
17615;BME280;8926;49.720;6.576;2023-04-20T03:08:20;99728.06;;;6.69;55.46
17615;BME280;8926;49.720;6.576;2023-04-20T03:10:45;99720.34;;;6.67;55.84
17615;BME280;8926;49.720;6.576;2023-04-20T03:13:10;99721.97;;;6.70;55.78
17615;BME280;8926;49.720;6.576;2023-04-20T03:15:36;99723.84;;;6.66;55.84
17615;BME280;8926;49.720;6.576;2023-04-20T03:18:01;99726.56;;;6.63;56.63
17615;BME280;8926;49.720;6.576;2023-04-20T03:20:27;99717.09;;;6.62;56.10
17615;BME280;8926;49.720;6.576;2023-04-20T03:22:53;99720.84;;;6.55;56.34
17615;BME280;8926;49.720;6.576;2023-04-20T03:25:18;99721.09;;;6.49;56.12
17615;BME280;8926;49.720;6.576;2023-04-20T03:27:45;99721.22;;;6.46;57.58
17615;BME280;8926;49.720;6.576;2023-04-20T03:30:12;99719.53;;;6.45;57.26
17615;BME280;8926;49.720;6.576;2023-04-20T03:32:37;99719.53;;;6.45;57.11
17615;BME280;8926;49.720;6.576;2023-04-20T03:35:04;99723.75;;;6.47;57.33
17615;BME280;8926;49.720;6.576;2023-04-20T03:37:29;99721.34;;;6.43;57.67
17615;BME280;8926;49.720;6.576;2023-04-20T03:39:55;99723.16;;;6.41;57.36
17615;BME280;8926;49.720;6.576;2023-04-20T03:42:20;99723.16;;;6.41;57.27
17615;BME280;8926;49.720;6.576;2023-04-20T03:44:45;99717.84;;;6.44;57.27
17615;BME280;8926;49.720;6.576;2023-04-20T03:47:11;99712.66;;;6.44;57.59
17615;BME280;8926;49.720;6.576;2023-04-20T03:49:36;99722.47;;;6.36;58.98
17615;BME280;8926;49.720;6.576;2023-04-20T03:52:01;99725.19;;;6.33;58.44
17615;BME280;8926;49.720;6.576;2023-04-20T03:54:27;99715.06;;;6.27;58.39
17615;BME280;8926;49.720;6.576;2023-04-20T03:56:52;99709.97;;;6.24;59.33
17615;BME280;8926;49.720;6.576;2023-04-20T03:59:17;99710.13;;;6.21;59.10
17615;BME280;8926;49.720;6.576;2023-04-20T04:01:43;99705.13;;;6.16;59.30
17615;BME280;8926;49.720;6.576;2023-04-20T04:04:08;99698.19;;;6.17;59.02
17615;BME280;8926;49.720;6.576;2023-04-20T04:06:33;99701.69;;;6.16;58.76
17615;BME280;8926;49.720;6.576;2023-04-20T04:08:58;99703.50;;;6.13;59.25
17615;BME280;8926;49.720;6.576;2023-04-20T04:11:24;99703.50;;;6.13;59.26
17615;BME280;8926;49.720;6.576;2023-04-20T04:13:50;99698.31;;;6.13;59.48
17615;BME280;8926;49.720;6.576;2023-04-20T04:16:15;99704.28;;;6.16;59.73
17615;BME280;8926;49.720;6.576;2023-04-20T04:18:43;99692.16;;;6.16;59.56
17615;BME280;8926;49.720;6.576;2023-04-20T04:21:09;99689.63;;;6.15;59.35
17615;BME280;8926;49.720;6.576;2023-04-20T04:23:35;99694.97;;;6.10;59.84
17615;BME280;8926;49.720;6.576;2023-04-20T04:26:01;99690.81;;;6.06;58.94
17615;BME280;8926;49.720;6.576;2023-04-20T04:28:27;99695.16;;;6.05;60.72
17615;BME280;8926;49.720;6.576;2023-04-20T04:30:52;99696.63;;;6.12;60.24
17615;BME280;8926;49.720;6.576;2023-04-20T04:33:18;99689.63;;;6.15;60.53
17615;BME280;8926;49.720;6.576;2023-04-20T04:35:44;99694.94;;;6.11;60.87
17615;BME280;8926;49.720;6.576;2023-04-20T04:38:11;99693.34;;;6.07;61.83
17615;BME280;8926;49.720;6.576;2023-04-20T04:40:38;99692.56;;;6.05;60.63
17615;BME280;8926;49.720;6.576;2023-04-20T04:43:06;99694.44;;;6.02;61.59
17615;BME280;8926;49.720;6.576;2023-04-20T04:45:31;99697.63;;;6.08;60.55
17615;BME280;8926;49.720;6.576;2023-04-20T04:47:57;99696.63;;;6.12;60.65
17615;BME280;8926;49.720;6.576;2023-04-20T04:50:23;99694.81;;;6.15;61.50
17615;BME280;8926;49.720;6.576;2023-04-20T04:52:48;99684.44;;;6.15;60.68
17615;BME280;8926;49.720;6.576;2023-04-20T04:55:13;99677.31;;;6.20;61.47
17615;BME280;8926;49.720;6.576;2023-04-20T04:57:38;99678.03;;;6.23;61.73
17615;BME280;8926;49.720;6.576;2023-04-20T05:00:04;99678.75;;;6.27;60.84
17615;BME280;8926;49.720;6.576;2023-04-20T05:02:36;99675.38;;;6.25;61.44
17615;BME280;8926;49.720;6.576;2023-04-20T05:05:02;99677.78;;;6.29;61.09
17615;BME280;8926;49.720;6.576;2023-04-20T05:07:27;99666.31;;;6.35;61.19
17615;BME280;8926;49.720;6.576;2023-04-20T05:09:52;99671.25;;;6.41;60.92
17615;BME280;8926;49.720;6.576;2023-04-20T05:12:18;99672.09;;;6.41;61.71
17615;BME280;8926;49.720;6.576;2023-04-20T05:14:43;99670.28;;;6.43;60.16
17615;BME280;8926;49.720;6.576;2023-04-20T05:17:09;99669.19;;;6.49;60.21
17615;BME280;8926;49.720;6.576;2023-04-20T05:19:34;99668.94;;;6.55;60.21
17615;BME280;8926;49.720;6.576;2023-04-20T05:21:59;99675.69;;;6.59;60.53
17615;BME280;8926;49.720;6.576;2023-04-20T05:24:25;99667.00;;;6.60;60.97
17615;BME280;8926;49.720;6.576;2023-04-20T05:26:50;99666.03;;;6.63;60.73
17615;BME280;8926;49.720;6.576;2023-04-20T05:29:15;99663.34;;;6.64;60.09
17615;BME280;8926;49.720;6.576;2023-04-20T05:31:41;99665.97;;;6.64;60.24
17615;BME280;8926;49.720;6.576;2023-04-20T05:34:06;99671.22;;;6.63;60.41
17615;BME280;8926;49.720;6.576;2023-04-20T05:36:32;99673.75;;;6.64;61.25
17615;BME280;8926;49.720;6.576;2023-04-20T05:38:57;99673.63;;;6.67;60.19
17615;BME280;8926;49.720;6.576;2023-04-20T05:41:23;99676.09;;;6.70;60.89
17615;BME280;8926;49.720;6.576;2023-04-20T05:43:54;99671.81;;;6.69;61.11
17615;BME280;8926;49.720;6.576;2023-04-20T05:46:20;99671.81;;;6.69;59.99
17615;BME280;8926;49.720;6.576;2023-04-20T05:48:46;99673.50;;;6.70;60.27
17615;BME280;8926;49.720;6.576;2023-04-20T05:51:11;99675.19;;;6.71;60.70
17615;BME280;8926;49.720;6.576;2023-04-20T05:53:37;99669.72;;;6.77;59.94
17615;BME280;8926;49.720;6.576;2023-04-20T05:56:02;99669.44;;;6.84;60.01
17615;BME280;8926;49.720;6.576;2023-04-20T05:58:29;99671.84;;;6.88;60.32
17615;BME280;8926;49.720;6.576;2023-04-20T06:00:56;99675.81;;;6.97;60.04
17615;BME280;8926;49.720;6.576;2023-04-20T06:03:22;99680.88;;;7.00;59.89
17615;BME280;8926;49.720;6.576;2023-04-20T06:05:47;99677.22;;;7.04;59.62
17615;BME280;8926;49.720;6.576;2023-04-20T06:08:12;99675.00;;;7.15;60.31
17615;BME280;8926;49.720;6.576;2023-04-20T06:10:37;99681.50;;;7.25;60.10
17615;BME280;8926;49.720;6.576;2023-04-20T06:13:03;99677.00;;;7.29;59.71
17615;BME280;8926;49.720;6.576;2023-04-20T06:15:28;99670.81;;;7.31;60.25
17615;BME280;8926;49.720;6.576;2023-04-20T06:17:53;99676.44;;;7.41;59.41
17615;BME280;8926;49.720;6.576;2023-04-20T06:20:19;99677.31;;;7.41;58.72
17615;BME280;8926;49.720;6.576;2023-04-20T06:22:44;99671.84;;;7.47;58.08
17615;BME280;8926;49.720;6.576;2023-04-20T06:25:10;99663.41;;;7.42;58.39
17615;BME280;8926;49.720;6.576;2023-04-20T06:27:36;99672.59;;;7.49;57.77
17615;BME280;8926;49.720;6.576;2023-04-20T06:30:01;99677.16;;;7.44;58.97
17615;BME280;8926;49.720;6.576;2023-04-20T06:32:28;99674.44;;;7.47;59.00
17615;BME280;8926;49.720;6.576;2023-04-20T06:34:53;99671.84;;;7.47;58.72
17615;BME280;8926;49.720;6.576;2023-04-20T06:37:18;99665.78;;;7.47;59.20
17615;BME280;8926;49.720;6.576;2023-04-20T06:39:43;99684.19;;;7.42;59.76
17615;BME280;8926;49.720;6.576;2023-04-20T06:42:09;99673.22;;;7.36;60.31
17615;BME280;8926;49.720;6.576;2023-04-20T06:44:34;99671.66;;;7.32;61.47
17615;BME280;8926;49.720;6.576;2023-04-20T06:47:00;99674.31;;;7.30;63.34
17615;BME280;8926;49.720;6.576;2023-04-20T06:49:25;99670.28;;;7.25;62.08
17615;BME280;8926;49.720;6.576;2023-04-20T06:51:50;99672.09;;;7.23;62.87
17615;BME280;8926;49.720;6.576;2023-04-20T06:54:16;99673.06;;;7.20;62.63
17615;BME280;8926;49.720;6.576;2023-04-20T06:56:41;99662.66;;;7.20;62.71
17615;BME280;8926;49.720;6.576;2023-04-20T06:59:06;99665.28;;;7.20;63.62
17615;BME280;8926;49.720;6.576;2023-04-20T07:01:31;99662.94;;;7.14;64.07
17615;BME280;8926;49.720;6.576;2023-04-20T07:03:57;99660.28;;;7.15;64.24
17615;BME280;8926;49.720;6.576;2023-04-20T07:06:22;99654.09;;;7.18;64.34
17615;BME280;8926;49.720;6.576;2023-04-20T07:08:49;99649.88;;;7.15;64.48
17615;BME280;8926;49.720;6.576;2023-04-20T07:11:14;99652.41;;;7.17;65.48
17615;BME280;8926;49.720;6.576;2023-04-20T07:13:39;99652.84;;;7.27;65.37
17615;BME280;8926;49.720;6.576;2023-04-20T07:16:05;99656.91;;;7.32;64.37
17615;BME280;8926;49.720;6.576;2023-04-20T07:18:30;99656.06;;;7.32;64.55
17615;BME280;8926;49.720;6.576;2023-04-20T07:20:56;99653.53;;;7.30;65.66
17615;BME280;8926;49.720;6.576;2023-04-20T07:23:21;99655.16;;;7.33;64.96
17615;BME280;8926;49.720;6.576;2023-04-20T07:25:46;99656.91;;;7.32;66.04
17615;BME280;8926;49.720;6.576;2023-04-20T07:28:12;99650.81;;;7.33;66.10
17615;BME280;8926;49.720;6.576;2023-04-20T07:30:37;99645.19;;;7.42;66.08
17615;BME280;8926;49.720;6.576;2023-04-20T07:33:03;99645.84;;;7.47;65.02
17615;BME280;8926;49.720;6.576;2023-04-20T07:35:28;99656.25;;;7.47;66.08
17615;BME280;8926;49.720;6.576;2023-04-20T07:37:53;99656.38;;;7.44;65.47
17615;BME280;8926;49.720;6.576;2023-04-20T07:40:19;99652.88;;;7.45;65.73
17615;BME280;8926;49.720;6.576;2023-04-20T07:42:44;99665.72;;;7.48;65.61
17615;BME280;8926;49.720;6.576;2023-04-20T07:45:12;99654.56;;;7.46;65.64
17615;BME280;8926;49.720;6.576;2023-04-20T07:47:37;99661.56;;;7.44;66.27
17615;BME280;8926;49.720;6.576;2023-04-20T07:50:04;99663.19;;;7.47;64.92
17615;BME280;8926;49.720;6.576;2023-04-20T07:52:30;99661.56;;;7.44;66.52
17615;BME280;8926;49.720;6.576;2023-04-20T07:54:55;99662.34;;;7.46;66.69
17615;BME280;8926;49.720;6.576;2023-04-20T07:57:25;99664.03;;;7.47;65.89
17615;BME280;8926;49.720;6.576;2023-04-20T07:59:50;99664.75;;;7.51;65.95
17615;BME280;8926;49.720;6.576;2023-04-20T08:02:16;99657.63;;;7.55;66.90
17615;BME280;8926;49.720;6.576;2023-04-20T08:04:41;99655.94;;;7.54;68.02
17615;BME280;8926;49.720;6.576;2023-04-20T08:07:08;99661.00;;;7.57;67.92
17615;BME280;8926;49.720;6.576;2023-04-20T08:09:33;99653.13;;;7.58;66.16
17615;BME280;8926;49.720;6.576;2023-04-20T08:11:59;99653.44;;;7.52;68.46
17615;BME280;8926;49.720;6.576;2023-04-20T08:14:24;99650.13;;;7.48;68.87
17615;BME280;8926;49.720;6.576;2023-04-20T08:16:50;99657.09;;;7.48;69.20
17615;BME280;8926;49.720;6.576;2023-04-20T08:19:15;99654.13;;;7.56;68.33
17615;BME280;8926;49.720;6.576;2023-04-20T08:21:41;99652.91;;;7.63;69.33
17615;BME280;8926;49.720;6.576;2023-04-20T08:24:07;99650.19;;;7.66;69.92
17615;BME280;8926;49.720;6.576;2023-04-20T08:26:33;99651.59;;;7.73;68.13
17615;BME280;8926;49.720;6.576;2023-04-20T08:29:00;99651.53;;;7.74;67.76
17615;BME280;8926;49.720;6.576;2023-04-20T08:31:26;99651.59;;;7.73;68.04
17615;BME280;8926;49.720;6.576;2023-04-20T08:33:51;99644.06;;;7.67;69.05
17615;BME280;8926;49.720;6.576;2023-04-20T08:36:17;99642.38;;;7.66;68.67
17615;BME280;8926;49.720;6.576;2023-04-20T08:38:43;99640.06;;;7.60;68.99
17615;BME280;8926;49.720;6.576;2023-04-20T08:41:08;99635.78;;;7.59;69.09
17615;BME280;8926;49.720;6.576;2023-04-20T08:43:37;99644.22;;;7.64;70.05
17615;BME280;8926;49.720;6.576;2023-04-20T08:46:02;99638.09;;;7.65;69.39
17615;BME280;8926;49.720;6.576;2023-04-20T08:48:38;99651.88;;;7.67;68.83
17615;BME280;8926;49.720;6.576;2023-04-20T08:51:05;99642.09;;;7.72;69.08
17615;BME280;8926;49.720;6.576;2023-04-20T08:53:31;99642.75;;;7.77;69.25
17615;BME280;8926;49.720;6.576;2023-04-20T08:55:57;99646.38;;;7.92;68.66
17615;BME280;8926;49.720;6.576;2023-04-20T08:58:30;99645.94;;;8.01;69.20
17615;BME280;8926;49.720;6.576;2023-04-20T09:00:59;99642.66;;;8.14;69.28
17615;BME280;8926;49.720;6.576;2023-04-20T09:03:35;99634.59;;;8.38;68.50
17615;BME280;8926;49.720;6.576;2023-04-20T09:06:01;99635.19;;;8.60;67.07
17615;BME280;8926;49.720;6.576;2023-04-20T09:08:37;99634.06;;;8.66;67.22
17615;BME280;8926;49.720;6.576;2023-04-20T09:11:02;99623.88;;;8.78;67.99
17615;BME280;8926;49.720;6.576;2023-04-20T09:13:28;99628.59;;;8.88;66.50
17615;BME280;8926;49.720;6.576;2023-04-20T09:15:54;99616.25;;;8.91;67.08
17615;BME280;8926;49.720;6.576;2023-04-20T09:18:19;99617.84;;;8.94;66.78
17615;BME280;8926;49.720;6.576;2023-04-20T09:20:45;99621.84;;;8.83;66.80
17615;BME280;8926;49.720;6.576;2023-04-20T09:23:18;99628.75;;;8.84;67.30
17615;BME280;8926;49.720;6.576;2023-04-20T09:25:46;99629.09;;;8.78;67.63
17615;BME280;8926;49.720;6.576;2023-04-20T09:28:12;99631.38;;;8.67;67.36
17615;BME280;8926;49.720;6.576;2023-04-20T09:30:43;99630.75;;;8.62;67.49
17615;BME280;8926;49.720;6.576;2023-04-20T09:33:10;99626.81;;;8.55;67.47
17615;BME280;8926;49.720;6.576;2023-04-20T09:35:45;99634.16;;;8.47;68.59
17615;BME280;8926;49.720;6.576;2023-04-20T09:38:14;99631.31;;;8.52;66.87
17615;BME280;8926;49.720;6.576;2023-04-20T09:40:39;99623.75;;;8.47;67.19
17615;BME280;8926;49.720;6.576;2023-04-20T09:43:08;99625.56;;;8.45;67.14
17615;BME280;8926;49.720;6.576;2023-04-20T09:45:35;99632.00;;;8.55;67.40
17615;BME280;8926;49.720;6.576;2023-04-20T09:48:03;99624.78;;;8.60;69.10
17615;BME280;8926;49.720;6.576;2023-04-20T09:50:30;99617.28;;;8.71;68.11
17615;BME280;8926;49.720;6.576;2023-04-20T09:52:56;99621.25;;;8.78;67.06
17615;BME280;8926;49.720;6.576;2023-04-20T09:55:22;99616.97;;;8.77;67.25
17615;BME280;8926;49.720;6.576;2023-04-20T09:57:49;99618.66;;;8.78;67.64
17615;BME280;8926;49.720;6.576;2023-04-20T10:00:15;99616.81;;;8.80;66.74
17615;BME280;8926;49.720;6.576;2023-04-20T10:02:45;99619.44;;;8.80;67.04
17615;BME280;8926;49.720;6.576;2023-04-20T10:05:10;99612.59;;;8.78;67.99
17615;BME280;8926;49.720;6.576;2023-04-20T10:07:36;99611.28;;;8.87;69.07
17615;BME280;8926;49.720;6.576;2023-04-20T10:10:05;99614.03;;;9.01;67.77
17615;BME280;8926;49.720;6.576;2023-04-20T10:12:31;99613.19;;;9.16;67.75
17615;BME280;8926;49.720;6.576;2023-04-20T10:14:56;99600.78;;;9.21;66.93
17615;BME280;8926;49.720;6.576;2023-04-20T10:17:30;99603.06;;;9.27;66.33
17615;BME280;8926;49.720;6.576;2023-04-20T10:19:55;99595.56;;;9.37;66.63
17615;BME280;8926;49.720;6.576;2023-04-20T10:22:31;99599.59;;;9.42;66.45
17615;BME280;8926;49.720;6.576;2023-04-20T10:24:58;99594.81;;;9.50;66.25
17615;BME280;8926;49.720;6.576;2023-04-20T10:27:24;99597.09;;;9.57;66.72
17615;BME280;8926;49.720;6.576;2023-04-20T10:29:49;99590.19;;;9.56;66.86
17615;BME280;8926;49.720;6.576;2023-04-20T10:32:26;99598.94;;;9.55;66.57
17615;BME280;8926;49.720;6.576;2023-04-20T10:35:09;99592.38;;;9.63;66.41
17615;BME280;8926;49.720;6.576;2023-04-20T10:37:46;99589.44;;;9.53;67.66
17615;BME280;8926;49.720;6.576;2023-04-20T10:40:11;99588.34;;;9.58;67.29
17615;BME280;8926;49.720;6.576;2023-04-20T10:42:41;99592.06;;;9.53;66.90
17615;BME280;8926;49.720;6.576;2023-04-20T10:45:07;99594.22;;;9.45;66.26
17615;BME280;8926;49.720;6.576;2023-04-20T10:47:33;99589.50;;;9.36;65.54
17615;BME280;8926;49.720;6.576;2023-04-20T10:50:12;99592.78;;;9.24;66.40
17615;BME280;8926;49.720;6.576;2023-04-20T10:52:40;99593.72;;;9.23;67.57
17615;BME280;8926;49.720;6.576;2023-04-20T10:55:19;99597.72;;;9.13;66.73
17615;BME280;8926;49.720;6.576;2023-04-20T10:57:45;99587.81;;;9.04;67.73
17615;BME280;8926;49.720;6.576;2023-04-20T11:02:52;99592.84;;;9.07;68.80
17615;BME280;8926;49.720;6.576;2023-04-20T11:05:19;99585.63;;;9.12;69.92
17615;BME280;8926;49.720;6.576;2023-04-20T11:10:18;99580.25;;;9.15;69.31
17615;BME280;8926;49.720;6.576;2023-04-20T11:12:43;99581.75;;;9.19;69.03
17615;BME280;8926;49.720;6.576;2023-04-20T11:15:09;99580.44;;;9.28;67.52
17615;BME280;8926;49.720;6.576;2023-04-20T11:17:35;99569.00;;;9.30;67.96
17615;BME280;8926;49.720;6.576;2023-04-20T11:22:33;99561.59;;;9.38;68.13
17615;BME280;8926;49.720;6.576;2023-04-20T11:25:06;99559.25;;;9.49;68.07
17615;BME280;8926;49.720;6.576;2023-04-20T11:27:32;99550.84;;;9.60;68.24
17615;BME280;8926;49.720;6.576;2023-04-20T11:29:58;99541.72;;;9.83;66.56
17615;BME280;8926;49.720;6.576;2023-04-20T11:32:25;99540.97;;;9.81;66.14
17615;BME280;8926;49.720;6.576;2023-04-20T11:35:02;99540.31;;;9.92;66.15
17615;BME280;8926;49.720;6.576;2023-04-20T11:37:31;99530.44;;;10.12;66.45
17615;BME280;8926;49.720;6.576;2023-04-20T11:40:01;99509.78;;;10.24;65.08
17615;BME280;8926;49.720;6.576;2023-04-20T11:42:29;99512.22;;;10.41;64.54
17615;BME280;8926;49.720;6.576;2023-04-20T11:44:54;99506.28;;;10.53;64.69
17615;BME280;8926;49.720;6.576;2023-04-20T11:47:20;99496.75;;;10.66;63.74
17615;BME280;8926;49.720;6.576;2023-04-20T11:49:45;99484.25;;;10.85;63.66
17615;BME280;8926;49.720;6.576;2023-04-20T11:52:10;99487.94;;;10.96;63.35
17615;BME280;8926;49.720;6.576;2023-04-20T11:54:35;99476.66;;;11.36;63.60
17615;BME280;8926;49.720;6.576;2023-04-20T11:57:01;99478.38;;;11.77;62.42
17615;BME280;8926;49.720;6.576;2023-04-20T11:59:26;99466.19;;;12.03;61.55
17615;BME280;8926;49.720;6.576;2023-04-20T12:01:52;99467.25;;;12.26;61.58
17615;BME280;8926;49.720;6.576;2023-04-20T12:04:17;99462.53;;;12.43;60.61
17615;BME280;8926;49.720;6.576;2023-04-20T12:06:42;99463.88;;;12.62;59.46
17615;BME280;8926;49.720;6.576;2023-04-20T12:09:08;99457.78;;;12.74;59.34
17615;BME280;8926;49.720;6.576;2023-04-20T12:11:33;99451.16;;;12.94;59.54
17615;BME280;8926;49.720;6.576;2023-04-20T12:13:59;99449.31;;;13.07;58.33
17615;BME280;8926;49.720;6.576;2023-04-20T12:16:24;99462.09;;;13.11;59.01
17615;BME280;8926;49.720;6.576;2023-04-20T12:18:50;99461.47;;;13.08;57.02
17615;BME280;8926;49.720;6.576;2023-04-20T12:21:15;99448.88;;;13.13;57.68
17615;BME280;8926;49.720;6.576;2023-04-20T12:23:40;99458.91;;;13.32;57.30
17615;BME280;8926;49.720;6.576;2023-04-20T12:26:08;99455.38;;;13.20;56.11
17615;BME280;8926;49.720;6.576;2023-04-20T12:28:33;99449.72;;;13.01;56.03
17615;BME280;8926;49.720;6.576;2023-04-20T12:30:58;99451.16;;;12.94;56.58
17615;BME280;8926;49.720;6.576;2023-04-20T12:33:24;99454.84;;;12.78;56.75
17615;BME280;8926;49.720;6.576;2023-04-20T12:35:49;99464.50;;;12.65;56.33
17615;BME280;8926;49.720;6.576;2023-04-20T12:38:15;99460.56;;;12.47;57.02
17615;BME280;8926;49.720;6.576;2023-04-20T12:40:40;99466.84;;;12.32;56.33
17615;BME280;8926;49.720;6.576;2023-04-20T12:43:05;99463.69;;;12.27;56.51
17615;BME280;8926;49.720;6.576;2023-04-20T12:45:31;99461.59;;;12.32;56.01
17615;BME280;8926;49.720;6.576;2023-04-20T12:47:56;99455.81;;;12.27;56.71
17615;BME280;8926;49.720;6.576;2023-04-20T12:50:23;99455.81;;;12.27;56.74
17615;BME280;8926;49.720;6.576;2023-04-20T12:52:48;99456.69;;;12.40;56.71
17615;BME280;8926;49.720;6.576;2023-04-20T12:55:13;99449.09;;;12.48;56.50
17615;BME280;8926;49.720;6.576;2023-04-20T12:57:38;99444.19;;;12.56;56.92
17615;BME280;8926;49.720;6.576;2023-04-20T13:00:04;99437.47;;;12.52;56.01
17615;BME280;8926;49.720;6.576;2023-04-20T13:02:33;99434.94;;;12.63;55.81
17615;BME280;8926;49.720;6.576;2023-04-20T13:04:59;99433.06;;;12.65;54.66
17615;BME280;8926;49.720;6.576;2023-04-20T13:07:25;99428.84;;;12.75;55.19
17615;BME280;8926;49.720;6.576;2023-04-20T13:09:52;99419.72;;;13.05;55.53
17615;BME280;8926;49.720;6.576;2023-04-20T13:12:17;99419.06;;;13.14;54.88
17615;BME280;8926;49.720;6.576;2023-04-20T13:14:43;99414.88;;;13.24;54.06
17615;BME280;8926;49.720;6.576;2023-04-20T13:17:08;99410.19;;;13.16;54.52
17615;BME280;8926;49.720;6.576;2023-04-20T13:19:33;99429.56;;;13.14;53.16
17615;BME280;8926;49.720;6.576;2023-04-20T13:21:59;99411.31;;;13.12;53.58